Marthasville, Missouri
Current Conditions -  °F | °C
As of 11:55 PM on Friday 31 Oct 2014 (Local Time) from KFYG Reporting Station
Clear Clear  
Wind Chill:   Ceiling: Unl
Heat Index:   Visibility: 10mi
Dew Point: -5°   Wind: 0mph
Humidity: 69%   Direction: NA
Pressure: 30.41"   Gusts: NA
Location:  38.63°N, 91.06°W
Report Text: KFYG 010455Z AUTO 00000KT 10SM CLR 00/M05 A3041 RMK AO2
Loading
Personal Weather Stations






























Interactive Weather Map
Tropical Storm Tracking
New forecast layout! Learn more

10-Day Weather Forecast

Advertisements
Track Severe Weather on mobile